Airfield :
LOGIN :

Register | Disclaimer

   EN    FR    IT 

 










Legend :    VFR   Marginal VFR   IFR   Intensive IFR   Very Intensive IFR
Visi :
Ceiling :
>= 8 km
>= 3000ft
5 to 8 km
1000 to 3000 ft
1500m to 5 km
500 to 1000 ft
800 to 1500m
200 to 500 ft
< 800m
< 200 ft
Symbols :   Thunderstorms  Fog  Heavy snow  Heavy precipitations  Wind > 20 kt
SIGMETs :     Misc.  Thunderstorms  Icing  Turbulence  Mountain Waves  Volcanic Ashes






- Airport Elevation : 2731 ft
- IATA code : LPY


LFHP - Le Puy Loudes

CURRENT METAR :
  • 191730Z AUTO VRB03KT 9999 OVC015 01/00 Q1015

EXPIRED METARs :
  • 191700Z AUTO 04004KT 9999 SCT007 OVC014 02/01 Q1015
  • 191630Z AUTO 01006KT 9999 OVC010 02/01 Q1015
  • 191600Z AUTO 04003KT 9999 BKN012 BKN018 OVC023 02/00 Q1015
  • 191530Z AUTO 03005KT 9999 SCT013 SCT020 OVC030 02/00 Q1015
  • 191500Z AUTO 03005KT 9999 -RA SCT012 OVC026 02/01 Q1015

Expired Forecast.



MET'MAP, your aeronautical weather chart ! - Copyright ORBIFLY December 2007 - Disclaimer

ORBIFLY MET'MAP TEAM :

Programming & Development : Alexandra Zaïnal
Concept & Development : Baudouin d'Aumeries
Co-Development & Prog : Marc-Olivier Méhu
Technical & hardware support : Manuel Goepfert

Contact : metmap@orbifly.com




SOURCES & CREDITS :

   NOAA